My Meet Scores
Sydney Hughes, Gymnastics X-Calibur - MyMeetScores.com
Top100 | Top Teams | Upcoming Meets | Completed Meets | Latest | Add Scores | Help| Support | Bookmark and Share

Sydney Hughes, Gymnastics X-Calibur
Personal Bests
LevelVault BarsBeamFloorAA
XG9.5759.775 9.5259.72538.300
XP9.1008.800 9.1009.30035.500
XS9.6009.825 9.7009.65038.550
Meet Scores
Date Meet Team Session Level Division Vault Bars Beam Floor AA
2021-03-18 Level 5 & Xcel Gold State Gymnastics X-Calibur 9 XG Sr D 9.575 1 9.500 3T 9.500 2T 9.725 2 38.300 1
2021-02-11 SCGA Classic 2021 Gymnastics X-Calibur XP XP Sr A 8.600 7 8.550 8 9.100 2 9.250 7 35.500 6
2021-02-11 SCGA Classic 2021 Gymnastics X-Calibur 1 XP Sr A 8.600 7T 8.550 8 9.100 2 9.250 8 35.500 6
2021-02-11 SCGA Classic 2021 Gymnastics X-Calibur 0 XP Sr A 0.000 1*
2021-02-05 Honey Badger Invite 2021 Gymnastics X-Calibur 4 XP All 9.100 4 8.800 5 8.250 5 9.300 3 35.450 4
2021-01-21 King Arthur Invitational Gymnastics X-Calibur 17 XG SR 9.400 1T 9.650 1 9.525 1 9.650 2 38.225 1
2021-01-14 2021 Bravo Classic Gymnastics X-Calibur 6 XG Sr 9.500 1 9.550 1T 9.350 2 9.450 2 37.850 1
2020-12-04 Wish Classic Gymnastics X-Calibur 1 XG SR 9.350 3 9.525 1 8.800 4 9.550 1 37.225 2
2020-02-21 Kinetic Classic Gymnastics X-Calibur 10 XG Older 9.425 11 9.775 7T 9.125 25T 9.550 6T 37.875 6
2020-01-31 LEgacy Elite Classic Gymnastics X-Calibur 5 XG Sr 9.050 1T 9.175 5 9.025 3T 9.100 5 36.350 2
2020-01-24 King Arthur Invitational Gymnastics X-Calibur 11 XG SR B 8.650 10T 9.500 2 8.850 6 9.325 6 36.325 6
2020-01-10 Leenda's Island Adventure Gymnastics X-Calibur GG9 XG 13 & Over 8.900 3T 9.700 2 9.100 2 9.075 7 36.775 4
2019-12-07 Home for the Holidays 2019 Gymnastics X-Calibur 5 XG Older 9.050 4 9.400 4 9.400 1 9.200 6 37.050 1
2019-11-08 Illinois Judges Cup Gymnastics X-Calibur P6 XG All Ages 9.250 4T 9.575 1 8.525 21 9.500 3T 36.850 4
2019-04-13 2019 Illinois XB, XS State Championships Gymnastics X-Calibur 1 XS Sr D 9.600 1 9.825 3 9.700 1 9.425 6 38.550 2
2019-02-15 Women's Midwest Open Gymnastics X-Calibur 10 XG Junior B 8.875 3 9.225 5 8.775 11T 9.200 10 36.075 6
2019-02-08 Midwest Twisters Harley Meet Womens Gymnastics X-Calibur S05 XG 12a 8.750 5T 9.450 1T 8.100 10 9.000 7 35.300 7
2019-01-25 King Arthur Invitational Gymnastics X-Calibur 17 XS SR B 9.150 4 9.675 1 9.425 3T 9.650 1 37.900 1
2019-01-04 Leenda's Island Adventure Gymnastics X-Calibur P06 XS 12 and Ove 9.225 3 9.525 7 9.525 2 8.800 6T 37.075 3
2018-11-30 Ultimate Wish Classic Gymnastics X-Calibur 7 XS SR 9.400 4 9.350 9T 9.050 10 9.150 6T 36.950 6
Get your scores on
a t-shirt, pin, or hoodie